Time;durP1;ratioP1;P1;durP2;ratioP2;P2;SDS_P1;SDS_P2;PMS_P1;PMS_P2;Temp;Humidity;BMP_temperature;BMP_pressure;BME280_temperature;BME280_humidity;BME280_pressure;Samples;Min_cycle;Max_cycle;Signal;HPM_P1;HPM_P2
2023/02/01 00:01:18;;;;;;;;;;;17.20;62.90;;;;;;5037546;28;1253;-69
2023/02/01 00:03:43;;;;;;;;;;;17.20;62.90;;;;;;5020040;28;917;-70
2023/02/01 00:06:09;;;;;;;;;;;17.20;62.90;;;;;;5034660;28;1945;-70
2023/02/01 00:08:35;;;;;;;;;;;17.10;62.80;;;;;;5019771;28;1426;-70
2023/02/01 00:11:01;;;;;;;;;;;17.20;62.90;;;;;;5035847;28;1513;-69
2023/02/01 00:13:27;;;;;;;;;;;17.20;62.90;;;;;;5019389;28;868;-70
2023/02/01 00:15:53;;;;;;;;;;;17.20;62.90;;;;;;5018939;28;879;-69
2023/02/01 00:18:18;;;;;;;;;;;17.10;62.90;;;;;;5018397;28;1277;-70
2023/02/01 00:20:47;;;;;;;;;;;17.10;62.90;;;;;;5032852;28;832;-70
2023/02/01 00:23:12;;;;;;;;;;;17.20;63.00;;;;;;5022054;28;923;-70
2023/02/01 00:25:39;;;;;;;;;;;17.10;63.00;;;;;;5020481;28;1910;-70
2023/02/01 00:28:05;;;;;;;;;;;17.10;62.90;;;;;;5024104;28;1339;-69
2023/02/01 00:30:30;;;;;;;;;;;17.20;63.00;;;;;;5018226;28;1081;-69
2023/02/01 00:32:55;;;;;;;;;;;17.10;63.00;;;;;;5019467;28;809;-67
2023/02/01 00:35:21;;;;;;;;;;;17.10;63.00;;;;;;5018797;28;1282;-72
2023/02/01 00:37:46;;;;;;;;;;;17.10;63.00;;;;;;5020357;28;1058;-70
2023/02/01 00:40:12;;;;;;;;;;;17.10;63.00;;;;;;5019505;28;1292;-67
2023/02/01 00:42:38;;;;;;;;;;;17.10;63.00;;;;;;5019568;28;895;-67
2023/02/01 00:45:03;;;;;;;;;;;17.10;63.00;;;;;;5017029;28;1982;-69
2023/02/01 00:47:30;;;;;;;;;;;17.10;63.00;;;;;;5017269;28;1486;-69
2023/02/01 00:49:55;;;;;;;;;;;17.10;63.10;;;;;;5017383;28;1287;-69
2023/02/01 00:52:21;;;;;;;;;;;17.10;63.10;;;;;;5019067;28;860;-71
2023/02/01 00:54:46;;;;;;;;;;;17.10;63.10;;;;;;5019238;28;826;-68
2023/02/01 00:57:12;;;;;;;;;;;17.10;63.10;;;;;;5024029;28;876;-68
2023/02/01 00:59:37;;;;;;;;;;;17.10;63.10;;;;;;5014348;28;1267;-68
2023/02/01 01:02:02;;;;;;;;;;;17.10;63.10;;;;;;5020895;28;859;-68
2023/02/01 01:04:28;;;;;;;;;;;17.00;63.10;;;;;;5017453;28;956;-70
2023/02/01 01:06:53;;;;;;;;;;;17.10;63.20;;;;;;5017979;28;1914;-68
2023/02/01 01:09:19;;;;;;;;;;;17.10;63.20;;;;;;5016749;28;1373;-68
2023/02/01 01:11:44;;;;;;;;;;;17.10;63.20;;;;;;5017103;28;926;-68
2023/02/01 01:14:10;;;;;;;;;;;17.10;63.20;;;;;;5022837;28;916;-69
2023/02/01 01:16:35;;;;;;;;;;;17.10;63.20;;;;;;5032645;28;2482;-69
2023/02/01 01:19:01;;;;;;;;;;;17.10;63.20;;;;;;5018984;28;1277;-69
2023/02/01 01:21:26;;;;;;;;;;;17.10;63.30;;;;;;5020756;28;828;-69
2023/02/01 01:23:52;;;;;;;;;;;17.10;63.20;;;;;;5031865;28;932;-69
2023/02/01 01:26:22;;;;;;;;;;;17.00;63.20;;;;;;5020327;28;1969;-69
2023/02/01 01:28:48;;;;;;;;;;;17.10;63.30;;;;;;5018887;28;1180;-69
2023/02/01 01:31:13;;;;;;;;;;;17.10;63.30;;;;;;5023921;28;1427;-69
2023/02/01 01:33:39;;;;;;;;;;;17.10;63.30;;;;;;5018406;28;1380;-69
2023/02/01 01:36:10;;;;;;;;;;;17.10;63.30;;;;;;5017878;28;1281;-69
2023/02/01 01:38:36;;;;;;;;;;;17.10;63.30;;;;;;5030893;28;1296;-69
2023/02/01 01:41:02;;;;;;;;;;;17.00;63.30;;;;;;5018229;28;938;-69
2023/02/01 01:43:44;;;;;;;;;;;17.00;63.30;;;;;;5022815;28;834;-69
2023/02/01 01:46:09;;;;;;;;;;;17.00;63.30;;;;;;5024520;28;1961;-69
2023/02/01 01:48:35;;;;;;;;;;;17.00;63.30;;;;;;5022208;28;1346;-69
2023/02/01 01:51:02;;;;;;;;;;;17.00;63.30;;;;;;5024737;28;947;-69
2023/02/01 01:53:28;;;;;;;;;;;17.00;63.40;;;;;;5021451;28;935;-69
2023/02/01 01:55:53;;;;;;;;;;;17.00;63.30;;;;;;5023806;28;1661;-69
2023/02/01 01:58:20;;;;;;;;;;;17.00;63.40;;;;;;5022447;28;1355;-69
2023/02/01 02:00:46;;;;;;;;;;;17.00;63.40;;;;;;5022077;28;1307;-69
2023/02/01 02:03:13;;;;;;;;;;;17.00;63.70;;;;;;5036422;28;1196;-69
2023/02/01 02:05:39;;;;;;;;;;;17.00;63.40;;;;;;5030140;28;1964;-69
2023/02/01 02:08:04;;;;;;;;;;;17.00;63.40;;;;;;5021623;28;1280;-69
2023/02/01 02:13:14;;;;;;;;;;;17.00;63.40;;;;;;5021355;28;1640;-70
2023/02/01 02:15:41;;;;;;;;;;;17.00;63.50;;;;;;5034393;28;872;-69
2023/02/01 02:18:09;;;;;;;;;;;17.00;63.40;;;;;;5024435;28;1300;-70
2023/02/01 02:20:34;;;;;;;;;;;17.00;63.50;;;;;;5023441;28;1085;-69
2023/02/01 02:23:06;;;;;;;;;;;17.00;63.50;;;;;;5022092;28;857;-69
2023/02/01 02:25:37;;;;;;;;;;;17.00;64.20;;;;;;5037317;28;1969;-69
2023/02/01 02:28:22;;;;;;;;;;;17.00;63.50;;;;;;5024995;28;1289;-69
2023/02/01 02:31:05;;;;;;;;;;;17.00;63.50;;;;;;5021524;28;800;-69
2023/02/01 02:33:31;;;;;;;;;;;17.00;63.60;;;;;;5020216;28;840;-69
2023/02/01 02:35:59;;;;;;;;;;;17.00;63.50;;;;;;5019208;28;1265;-69
2023/02/01 02:38:43;;;;;;;;;;;17.00;63.50;;;;;;5019850;28;1265;-69
2023/02/01 02:41:11;;;;;;;;;;;17.00;63.60;;;;;;5017500;28;896;-69
2023/02/01 02:49:13;;;;;;;;;;;17.00;63.60;;;;;;5021936;28;1354;-70
2023/02/01 02:54:46;;;;;;;;;;;16.90;63.50;;;;;;5017748;28;821;-69
2023/02/01 03:05:32;;;;;;;;;;;16.90;63.60;;;;;;5027690;28;1890;-69
2023/02/01 03:08:02;;;;;;;;;;;16.90;63.50;;;;;;5022429;28;1625;-69
2023/02/01 03:10:46;;;;;;;;;;;16.90;63.60;;;;;;5022736;28;1269;-70
2023/02/01 03:13:17;;;;;;;;;;;16.90;63.70;;;;;;5022708;28;1455;-70
2023/02/01 03:15:45;;;;;;;;;;;16.90;63.60;;;;;;5037739;28;1549;-71
2023/02/01 03:18:19;;;;;;;;;;;16.90;63.60;;;;;;5028595;28;1478;-72
2023/02/01 03:20:44;;;;;;;;;;;16.90;63.70;;;;;;5024030;28;1779;-72
2023/02/01 03:23:10;;;;;;;;;;;16.90;63.60;;;;;;5023488;28;1605;-71
2023/02/01 03:25:36;;;;;;;;;;;16.90;63.60;;;;;;5023795;28;1906;-69
2023/02/01 03:28:03;;;;;;;;;;;16.90;63.70;;;;;;5036522;28;1516;-71
2023/02/01 03:30:34;;;;;;;;;;;16.90;63.70;;;;;;5024473;28;1442;-68
2023/02/01 03:33:00;;;;;;;;;;;16.90;63.70;;;;;;5023315;28;1287;-69
2023/02/01 03:35:36;;;;;;;;;;;16.90;63.60;;;;;;5028284;28;1354;-69
2023/02/01 03:38:03;;;;;;;;;;;16.90;63.70;;;;;;5023228;28;1285;-70
2023/02/01 03:40:30;;;;;;;;;;;16.90;63.70;;;;;;5020519;28;891;-68
2023/02/01 03:42:55;;;;;;;;;;;16.90;63.70;;;;;;5038606;28;1112;-69
2023/02/01 03:45:31;;;;;;;;;;;16.90;63.70;;;;;;5021451;28;1890;-70
2023/02/01 03:47:57;;;;;;;;;;;16.90;63.70;;;;;;5019421;28;1269;-69
2023/02/01 03:50:25;;;;;;;;;;;16.90;63.70;;;;;;5035925;28;852;-71
2023/02/01 03:52:57;;;;;;;;;;;16.90;63.70;;;;;;5025093;28;849;-68
2023/02/01 03:55:23;;;;;;;;;;;16.90;63.70;;;;;;5020835;28;918;-70
2023/02/01 03:57:53;;;;;;;;;;;16.90;63.70;;;;;;5022343;28;801;-69
2023/02/01 04:00:19;;;;;;;;;;;16.90;63.70;;;;;;5031220;28;813;-70
2023/02/01 04:02:45;;;;;;;;;;;16.90;63.70;;;;;;5018282;28;857;-69
2023/02/01 04:05:11;;;;;;;;;;;16.90;63.70;;;;;;5036806;28;1967;-69
2023/02/01 04:07:36;;;;;;;;;;;16.90;63.70;;;;;;5033579;28;864;-69
2023/02/01 04:10:03;;;;;;;;;;;16.90;63.80;;;;;;5019410;28;1356;-69
2023/02/01 04:12:28;;;;;;;;;;;16.90;63.80;;;;;;5020070;28;900;-69
2023/02/01 04:14:54;;;;;;;;;;;16.90;63.80;;;;;;5020606;28;871;-69
2023/02/01 04:17:19;;;;;;;;;;;16.90;63.80;;;;;;5019966;28;862;-69
2023/02/01 04:19:45;;;;;;;;;;;16.90;63.80;;;;;;5017724;28;1688;-69
2023/02/01 04:22:12;;;;;;;;;;;16.90;63.80;;;;;;5034549;28;1137;-70
2023/02/01 04:24:37;;;;;;;;;;;16.90;63.80;;;;;;5019155;28;903;-69
2023/02/01 04:27:03;;;;;;;;;;;16.90;63.80;;;;;;5020750;28;1977;-70
2023/02/01 04:29:28;;;;;;;;;;;16.90;63.80;;;;;;5017050;28;1244;-69
2023/02/01 04:31:54;;;;;;;;;;;16.90;63.80;;;;;;5018825;28;1357;-70
2023/02/01 04:34:19;;;;;;;;;;;16.90;63.90;;;;;;5024693;28;1297;-70
2023/02/01 04:36:44;;;;;;;;;;;16.90;63.80;;;;;;5027214;28;883;-70
2023/02/01 04:39:10;;;;;;;;;;;16.90;63.80;;;;;;5018321;28;1265;-70
2023/02/01 04:41:35;;;;;;;;;;;16.90;63.90;;;;;;5021131;28;971;-69
2023/02/01 04:44:01;;;;;;;;;;;16.90;63.80;;;;;;5018404;28;1030;-68
2023/02/01 04:46:26;;;;;;;;;;;16.90;63.80;;;;;;5018495;28;1958;-68
2023/02/01 04:48:52;;;;;;;;;;;16.90;63.90;;;;;;5021828;28;1354;-67
2023/02/01 04:51:17;;;;;;;;;;;16.90;63.90;;;;;;5018795;28;1002;-67
2023/02/01 04:53:43;;;;;;;;;;;16.90;63.90;;;;;;5019684;28;820;-67
2023/02/01 04:56:09;;;;;;;;;;;16.90;63.90;;;;;;5019559;28;908;-68
2023/02/01 04:58:34;;;;;;;;;;;16.90;63.90;;;;;;5022036;28;1338;-69
2023/02/01 05:01:04;;;;;;;;;;;16.90;63.90;;;;;;5030382;28;854;-68
2023/02/01 05:03:30;;;;;;;;;;;16.90;63.90;;;;;;5017266;28;881;-68
2023/02/01 05:05:55;;;;;;;;;;;16.90;63.90;;;;;;5017397;28;1959;-68
2023/02/01 05:08:22;;;;;;;;;;;16.90;63.90;;;;;;5017650;28;1289;-67
2023/02/01 05:10:47;;;;;;;;;;;16.90;63.80;;;;;;5017039;28;872;-69
2023/02/01 05:15:57;;;;;;;;;;;16.90;63.70;;;;;;5019304;28;767;-70
2023/02/01 05:18:23;;;;;;;;;;;17.00;63.60;;;;;;5020558;28;1299;-69
2023/02/01 05:20:48;;;;;;;;;;;17.00;63.50;;;;;;5023808;28;942;-69
2023/02/01 05:23:13;;;;;;;;;;;17.10;63.40;;;;;;5022875;28;888;-70
2023/02/01 05:25:39;;;;;;;;;;;17.10;63.20;;;;;;5024468;28;1910;-71
2023/02/01 05:28:04;;;;;;;;;;;17.20;63.10;;;;;;5020916;28;1338;-69
2023/02/01 05:30:30;;;;;;;;;;;17.20;63.00;;;;;;5021827;28;1058;-70
2023/02/01 05:32:55;;;;;;;;;;;17.20;62.80;;;;;;5020755;28;859;-69
2023/02/01 05:35:21;;;;;;;;;;;17.20;62.70;;;;;;5021285;28;1345;-69
2023/02/01 05:37:46;;;;;;;;;;;17.30;62.60;;;;;;5019336;28;804;-69
2023/02/01 05:40:12;;;;;;;;;;;17.30;62.40;;;;;;5019059;28;1168;-69
2023/02/01 05:42:37;;;;;;;;;;;17.40;62.40;;;;;;5024778;28;879;-68
2023/02/01 05:45:05;;;;;;;;;;;17.30;62.30;;;;;;5023344;28;1999;-71
2023/02/01 05:47:30;;;;;;;;;;;17.40;62.20;;;;;;5019509;28;1021;-68
2023/02/01 05:49:56;;;;;;;;;;;17.40;62.10;;;;;;5023704;28;1331;-68
2023/02/01 05:52:21;;;;;;;;;;;17.40;62.00;;;;;;5024447;28;853;-68
2023/02/01 05:54:47;;;;;;;;;;;17.40;62.00;;;;;;5025584;28;907;-70
2023/02/01 05:57:12;;;;;;;;;;;17.50;62.00;;;;;;5037094;28;865;-69
2023/02/01 05:59:40;;;;;;;;;;;17.50;61.90;;;;;;5023731;28;1361;-69
2023/02/01 06:02:09;;;;;;;;;;;17.50;61.90;;;;;;5007213;28;934;-68
2023/02/01 06:04:35;;;;;;;;;;;17.50;61.80;;;;;;5022280;28;1354;-68
2023/02/01 06:07:00;;;;;;;;;;;17.50;61.80;;;;;;5022064;28;1951;-68
2023/02/01 06:09:28;;;;;;;;;;;17.50;61.80;;;;;;5023210;28;1300;-68
2023/02/01 06:11:53;;;;;;;;;;;17.50;61.80;;;;;;5020158;28;1554;-68
2023/02/01 06:14:19;;;;;;;;;;;17.50;62.50;;;;;;5019872;28;2126;-68
2023/02/01 06:16:46;;;;;;;;;;;17.50;61.70;;;;;;5023099;28;913;-68
2023/02/01 06:19:12;;;;;;;;;;;17.50;61.70;;;;;;5029459;28;1476;-68
2023/02/01 06:21:37;;;;;;;;;;;17.50;61.70;;;;;;5036022;28;880;-68
2023/02/01 06:24:03;;;;;;;;;;;17.50;61.60;;;;;;5020059;28;811;-69
2023/02/01 06:26:29;;;;;;;;;;;17.60;61.70;;;;;;5037407;28;1930;-68
2023/02/01 06:28:55;;;;;;;;;;;17.50;61.60;;;;;;5025507;28;1425;-68
2023/02/01 06:31:20;;;;;;;;;;;17.60;61.60;;;;;;5016132;28;832;-69
2023/02/01 06:33:47;;;;;;;;;;;17.60;61.60;;;;;;5021242;28;817;-67
2023/02/01 06:36:12;;;;;;;;;;;17.60;61.60;;;;;;5020368;28;1279;-68
2023/02/01 06:38:38;;;;;;;;;;;17.60;61.50;;;;;;5020118;28;1284;-68
2023/02/01 06:41:04;;;;;;;;;;;17.60;61.50;;;;;;5020794;28;1209;-68
2023/02/01 06:43:29;;;;;;;;;;;17.60;62.20;;;;;;5021110;28;855;-67
2023/02/01 06:46:01;;;;;;;;;;;17.60;61.50;;;;;;5021725;28;1965;-68
2023/02/01 06:48:27;;;;;;;;;;;17.60;61.50;;;;;;5021961;28;1393;-68
2023/02/01 06:50:52;;;;;;;;;;;17.60;61.50;;;;;;5021838;28;900;-68
2023/02/01 06:53:18;;;;;;;;;;;17.60;61.40;;;;;;5022288;28;1035;-68
2023/02/01 06:55:56;;;;;;;;;;;17.60;61.40;;;;;;5035653;28;873;-69
2023/02/01 06:58:22;;;;;;;;;;;17.60;61.40;;;;;;5017187;28;1283;-70
2023/02/01 07:00:48;;;;;;;;;;;17.60;61.40;;;;;;5021391;28;789;-69
2023/02/01 07:03:13;;;;;;;;;;;17.60;61.40;;;;;;5020516;28;1259;-69
2023/02/01 07:05:39;;;;;;;;;;;17.60;61.40;;;;;;5018538;28;1914;-69
2023/02/01 07:08:04;;;;;;;;;;;17.60;61.40;;;;;;5020809;28;1332;-69
2023/02/01 07:10:30;;;;;;;;;;;17.60;61.40;;;;;;5017274;28;1513;-69
2023/02/01 07:12:58;;;;;;;;;;;17.60;61.30;;;;;;5020711;28;1006;-69
2023/02/01 07:15:23;;;;;;;;;;;17.60;61.30;;;;;;5020913;28;1287;-71
2023/02/01 07:17:49;;;;;;;;;;;17.60;61.40;;;;;;5020317;28;946;-69
2023/02/01 07:20:15;;;;;;;;;;;17.60;61.40;;;;;;5019857;28;1240;-69
2023/02/01 07:22:40;;;;;;;;;;;17.60;61.40;;;;;;5017327;28;866;-69
2023/02/01 07:25:06;;;;;;;;;;;17.60;61.40;;;;;;5019629;28;1977;-68
2023/02/01 07:27:33;;;;;;;;;;;17.60;61.40;;;;;;5021315;28;1010;-69
2023/02/01 07:30:01;;;;;;;;;;;17.60;61.40;;;;;;5021082;28;1263;-68
2023/02/01 07:32:27;;;;;;;;;;;17.60;61.40;;;;;;5018209;28;920;-68
2023/02/01 07:34:52;;;;;;;;;;;17.60;61.50;;;;;;5019585;28;1314;-68
2023/02/01 07:37:18;;;;;;;;;;;17.60;61.50;;;;;;5019426;28;1022;-68
2023/02/01 07:39:43;;;;;;;;;;;17.60;61.50;;;;;;5019090;28;1212;-69
2023/02/01 07:42:09;;;;;;;;;;;17.50;61.50;;;;;;5016723;28;892;-69
2023/02/01 07:44:34;;;;;;;;;;;17.60;61.60;;;;;;5019953;28;796;-69
2023/02/01 07:47:00;;;;;;;;;;;17.60;61.60;;;;;;5021030;28;1981;-70
2023/02/01 07:49:25;;;;;;;;;;;17.60;61.70;;;;;;5020117;28;1264;-68
2023/02/01 07:51:51;;;;;;;;;;;17.60;61.70;;;;;;5021703;28;785;-72
2023/02/01 07:54:16;;;;;;;;;;;17.50;61.70;;;;;;5018985;28;924;-72
2023/02/01 07:56:42;;;;;;;;;;;17.50;61.70;;;;;;5027719;28;1528;-70
2023/02/01 07:59:07;;;;;;;;;;;17.50;61.70;;;;;;5019070;28;1256;-71
2023/02/01 08:01:33;;;;;;;;;;;17.50;61.70;;;;;;5020728;28;929;-71
2023/02/01 08:03:59;;;;;;;;;;;17.50;61.70;;;;;;5019790;28;1367;-74
2023/02/01 08:06:24;;;;;;;;;;;17.50;61.80;;;;;;5034619;28;1894;-74
2023/02/01 08:08:50;;;;;;;;;;;17.50;61.80;;;;;;5017394;28;1252;-72
2023/02/01 08:11:16;;;;;;;;;;;17.50;61.80;;;;;;5016538;28;853;-72
2023/02/01 08:13:41;;;;;;;;;;;17.50;61.90;;;;;;5034963;28;935;-71
2023/02/01 08:16:07;;;;;;;;;;;17.50;61.90;;;;;;5018824;28;812;-72
2023/02/01 08:18:33;;;;;;;;;;;17.50;61.90;;;;;;5015652;28;1339;-72
2023/02/01 08:21:08;;;;;;;;;;;17.50;62.00;;;;;;5018330;28;935;-72
2023/02/01 08:23:34;;;;;;;;;;;17.50;62.00;;;;;;5019157;28;1259;-73
2023/02/01 08:26:05;;;;;;;;;;;17.40;62.00;;;;;;5020547;28;1942;-73
2023/02/01 08:28:31;;;;;;;;;;;17.50;62.10;;;;;;5018618;28;1322;-72
2023/02/01 08:30:56;;;;;;;;;;;17.40;62.00;;;;;;5033506;28;975;-72
2023/02/01 08:33:22;;;;;;;;;;;17.40;62.00;;;;;;5018880;28;884;-72
2023/02/01 08:35:47;;;;;;;;;;;17.40;62.00;;;;;;5017578;28;1466;-72
2023/02/01 08:38:13;;;;;;;;;;;17.40;62.00;;;;;;5018090;28;1288;-72
2023/02/01 08:40:38;;;;;;;;;;;17.40;62.10;;;;;;5017991;28;821;-72
2023/02/01 08:43:04;;;;;;;;;;;17.40;62.00;;;;;;5017943;28;835;-73
2023/02/01 08:45:29;;;;;;;;;;;17.40;62.00;;;;;;5016835;28;1969;-71
2023/02/01 08:47:55;;;;;;;;;;;17.40;62.00;;;;;;5019126;28;1248;-70
2023/02/01 08:50:21;;;;;;;;;;;17.50;62.00;;;;;;5032935;28;939;-71
2023/02/01 08:52:46;;;;;;;;;;;17.50;62.00;;;;;;5032687;28;797;-71
2023/02/01 08:55:12;;;;;;;;;;;17.50;61.90;;;;;;5019042;28;860;-71
2023/02/01 08:57:38;;;;;;;;;;;17.50;61.90;;;;;;5010751;28;1180;-73
2023/02/01 09:00:04;;;;;;;;;;;17.50;61.90;;;;;;5027161;28;1608;-73
2023/02/01 09:02:30;;;;;;;;;;;17.50;61.80;;;;;;5021649;28;982;-74
2023/02/01 09:04:55;;;;;;;;;;;17.50;61.80;;;;;;5017201;28;1330;-70
2023/02/01 09:07:21;;;;;;;;;;;17.50;61.70;;;;;;5019009;28;1894;-70
2023/02/01 09:09:46;;;;;;;;;;;17.50;61.70;;;;;;5015020;28;1262;-70
2023/02/01 09:12:12;;;;;;;;;;;17.60;61.70;;;;;;5032293;28;1403;-72
2023/02/01 09:14:37;;;;;;;;;;;17.60;61.70;;;;;;5015097;28;837;-72
2023/02/01 09:17:03;;;;;;;;;;;17.60;61.60;;;;;;5021464;28;869;-71
2023/02/01 09:19:28;;;;;;;;;;;17.60;61.50;;;;;;5018178;28;1361;-71
2023/02/01 09:21:54;;;;;;;;;;;17.60;61.50;;;;;;5016843;28;938;-72
2023/02/01 09:24:19;;;;;;;;;;;17.60;61.40;;;;;;5030479;28;835;-72
2023/02/01 09:26:45;;;;;;;;;;;17.60;61.40;;;;;;5014045;28;2120;-72
2023/02/01 09:29:10;;;;;;;;;;;17.60;61.40;;;;;;5019605;28;1233;-71
2023/02/01 09:31:36;;;;;;;;;;;17.60;61.40;;;;;;5017039;28;914;-71
2023/02/01 09:34:02;;;;;;;;;;;17.60;61.40;;;;;;5016486;28;948;-72
2023/02/01 09:36:27;;;;;;;;;;;17.60;61.40;;;;;;5037148;28;1290;-71
2023/02/01 09:38:53;;;;;;;;;;;17.60;61.40;;;;;;5017529;28;1261;-71
2023/02/01 09:41:25;;;;;;;;;;;17.60;61.50;;;;;;5034795;28;782;-71
2023/02/01 09:44:00;;;;;;;;;;;17.60;61.50;;;;;;5029114;28;1027;-73
2023/02/01 09:46:27;;;;;;;;;;;17.60;61.50;;;;;;5017835;28;1894;-71
2023/02/01 09:48:53;;;;;;;;;;;17.60;61.50;;;;;;5022163;28;1345;-71
2023/02/01 09:51:21;;;;;;;;;;;17.60;61.60;;;;;;5023408;28;883;-71
2023/02/01 09:53:58;;;;;;;;;;;17.60;61.60;;;;;;5032415;28;878;-71
2023/02/01 09:56:24;;;;;;;;;;;17.60;61.60;;;;;;5020026;28;845;-72
2023/02/01 09:58:56;;;;;;;;;;;17.60;61.70;;;;;;5030940;28;1357;-71
2023/02/01 10:01:22;;;;;;;;;;;17.60;61.70;;;;;;5015330;28;852;-71
2023/02/01 10:03:48;;;;;;;;;;;17.60;61.70;;;;;;5033097;28;1340;-70
2023/02/01 10:06:32;;;;;;;;;;;17.60;61.70;;;;;;5028754;28;1902;-71
2023/02/01 10:09:16;;;;;;;;;;;17.60;61.70;;;;;;5017932;28;1286;-71
2023/02/01 10:12:00;;;;;;;;;;;17.60;61.70;;;;;;5021458;28;962;-70
2023/02/01 10:14:44;;;;;;;;;;;17.60;61.70;;;;;;5017559;28;940;-70
2023/02/01 10:17:09;;;;;;;;;;;17.60;61.60;;;;;;5017763;28;1196;-70
2023/02/01 10:19:41;;;;;;;;;;;17.60;61.60;;;;;;5021796;28;1323;-69
2023/02/01 10:22:08;;;;;;;;;;;17.60;61.50;;;;;;5020840;28;1198;-69
2023/02/01 10:24:38;;;;;;;;;;;17.60;61.50;;;;;;5023729;28;987;-69
2023/02/01 10:27:14;;;;;;;;;;;17.60;61.40;;;;;;5036729;28;1910;-69
2023/02/01 10:29:41;;;;;;;;;;;17.60;61.40;;;;;;5019410;28;1232;-70
2023/02/01 10:32:35;;;;;;;;;;;17.70;61.40;;;;;;5020868;28;781;-70
2023/02/01 10:35:03;;;;;;;;;;;17.70;61.40;;;;;;5023358;28;1645;-70
2023/02/01 10:37:29;;;;;;;;;;;17.70;61.30;;;;;;5017347;28;1307;-68
2023/02/01 10:39:55;;;;;;;;;;;17.70;61.30;;;;;;5028374;28;1482;-69
2023/02/01 10:42:22;;;;;;;;;;;17.70;61.30;;;;;;5024812;28;864;-68
2023/02/01 10:44:47;;;;;;;;;;;17.70;61.30;;;;;;5012541;28;845;-69
2023/02/01 10:47:13;;;;;;;;;;;17.70;61.20;;;;;;5034787;28;1991;-69
2023/02/01 10:49:47;;;;;;;;;;;17.70;61.20;;;;;;5018210;28;1377;-69
2023/02/01 10:52:29;;;;;;;;;;;17.70;61.20;;;;;;5036036;28;832;-69
2023/02/01 10:54:55;;;;;;;;;;;17.70;61.20;;;;;;5019602;28;879;-69
2023/02/01 10:57:25;;;;;;;;;;;17.70;61.20;;;;;;5019863;28;825;-71
2023/02/01 10:59:54;;;;;;;;;;;17.70;61.20;;;;;;5012220;28;2022;-69
2023/02/01 11:02:29;;;;;;;;;;;17.70;61.20;;;;;;5022067;28;1790;-72
2023/02/01 11:05:04;;;;;;;;;;;17.70;61.10;;;;;;5011460;28;1224;-71
2023/02/01 11:07:30;;;;;;;;;;;17.70;61.10;;;;;;5016563;28;1914;-71
2023/02/01 11:09:56;;;;;;;;;;;17.70;61.10;;;;;;5022502;28;1393;-71
2023/02/01 11:12:26;;;;;;;;;;;17.70;61.10;;;;;;5024289;28;860;-71
2023/02/01 11:14:54;;;;;;;;;;;17.70;61.10;;;;;;5017917;28;905;-70
2023/02/01 11:17:33;;;;;;;;;;;17.70;61.10;;;;;;5027730;28;1276;-72
2023/02/01 11:20:28;;;;;;;;;;;17.70;61.10;;;;;;5031243;28;1364;-69
2023/02/01 11:22:54;;;;;;;;;;;17.70;61.00;;;;;;5017182;28;1133;-71
2023/02/01 11:25:19;;;;;;;;;;;17.70;61.00;;;;;;5022763;28;1937;-71
2023/02/01 11:27:45;;;;;;;;;;;17.80;61.10;;;;;;5020936;28;1065;-71
2023/02/01 11:30:14;;;;;;;;;;;17.80;61.10;;;;;;5020089;28;1247;-71
2023/02/01 11:32:40;;;;;;;;;;;17.80;61.10;;;;;;5021118;28;855;-71
2023/02/01 11:35:05;;;;;;;;;;;17.80;61.10;;;;;;5019423;28;1260;-71
2023/02/01 11:37:33;;;;;;;;;;;17.80;61.00;;;;;;5017431;28;860;-70
2023/02/01 11:40:00;;;;;;;;;;;17.70;61.00;;;;;;5020681;28;1332;-71
2023/02/01 11:42:26;;;;;;;;;;;17.80;61.10;;;;;;5033879;28;892;-70
2023/02/01 11:44:52;;;;;;;;;;;17.80;61.00;;;;;;5034311;28;793;-71
2023/02/01 11:47:24;;;;;;;;;;;17.80;61.00;;;;;;5035617;28;1898;-71
2023/02/01 11:49:51;;;;;;;;;;;17.80;61.00;;;;;;5030553;28;1795;-71
2023/02/01 11:52:18;;;;;;;;;;;17.80;61.00;;;;;;5019347;28;896;-71
2023/02/01 11:54:47;;;;;;;;;;;17.70;60.90;;;;;;5021492;28;928;-71
2023/02/01 11:57:28;;;;;;;;;;;17.80;60.90;;;;;;5018607;28;1221;-70
2023/02/01 11:59:59;;;;;;;;;;;17.80;60.90;;;;;;5019608;28;1256;-71
2023/02/01 12:02:25;;;;;;;;;;;17.80;60.90;;;;;;5021369;28;1966;-71
2023/02/01 12:04:51;;;;;;;;;;;17.80;60.90;;;;;;5016848;28;1333;-71
2023/02/01 12:07:35;;;;;;;;;;;17.80;60.90;;;;;;5017979;28;1910;-72
2023/02/01 12:10:13;;;;;;;;;;;17.80;60.90;;;;;;5020067;28;1369;-71
2023/02/01 12:12:45;;;;;;;;;;;17.80;60.90;;;;;;5014975;28;852;-70
2023/02/01 12:15:47;;;;;;;;;;;17.80;60.90;;;;;;5030790;28;1294;-71
2023/02/01 12:18:31;;;;;;;;;;;17.80;60.90;;;;;;5011486;28;1414;-71
2023/02/01 12:21:10;;;;;;;;;;;17.80;60.90;;;;;;5018827;28;865;-72
2023/02/01 12:23:36;;;;;;;;;;;17.80;60.90;;;;;;5032924;28;845;-72
2023/02/01 12:26:07;;;;;;;;;;;17.80;60.90;;;;;;5018462;28;1967;-70
2023/02/01 12:29:08;;;;;;;;;;;17.80;60.90;;;;;;5017770;28;1943;-72
2023/02/01 12:31:46;;;;;;;;;;;17.80;60.90;;;;;;5034097;28;1441;-71
2023/02/01 12:34:24;;;;;;;;;;;17.80;60.80;;;;;;5021257;28;1652;-70
2023/02/01 12:36:53;;;;;;;;;;;17.80;60.90;;;;;;5031216;28;2039;-70
2023/02/01 12:39:32;;;;;;;;;;;17.80;60.80;;;;;;5031919;28;1272;-70
2023/02/01 12:42:03;;;;;;;;;;;17.80;60.80;;;;;;5016919;28;1344;-70
2023/02/01 12:44:31;;;;;;;;;;;17.80;60.80;;;;;;5015658;28;887;-70
2023/02/01 12:46:58;;;;;;;;;;;17.80;60.80;;;;;;5019127;28;1906;-70
2023/02/01 12:49:25;;;;;;;;;;;17.80;60.80;;;;;;5018255;28;1263;-70
2023/02/01 12:51:52;;;;;;;;;;;17.80;60.80;;;;;;5017274;28;846;-70
2023/02/01 12:54:36;;;;;;;;;;;17.80;60.80;;;;;;5037894;28;1073;-70
2023/02/01 12:57:20;;;;;;;;;;;17.80;60.80;;;;;;5016655;28;1062;-71
2023/02/01 13:00:05;;;;;;;;;;;17.80;60.80;;;;;;5020563;28;1249;-71
2023/02/01 13:02:36;;;;;;;;;;;17.80;60.90;;;;;;5017654;28;907;-70
2023/02/01 13:05:17;;;;;;;;;;;17.80;60.80;;;;;;5021737;28;1638;-70
2023/02/01 13:07:45;;;;;;;;;;;17.80;61.30;;;;;;5014646;28;824;-71
2023/02/01 13:10:14;;;;;;;;;;;17.80;60.90;;;;;;5016100;28;1229;-70
2023/02/01 13:13:02;;;;;;;;;;;17.80;60.90;;;;;;5017257;28;828;-71
2023/02/01 13:15:39;;;;;;;;;;;17.80;61.00;;;;;;5015190;28;1183;-71
2023/02/01 13:18:04;;;;;;;;;;;17.80;60.90;;;;;;5032103;28;1800;-71
2023/02/01 13:20:30;;;;;;;;;;;17.80;60.90;;;;;;5023277;28;1472;-70
2023/02/01 13:23:08;;;;;;;;;;;17.80;61.00;;;;;;5020068;28;870;-70
2023/02/01 13:25:35;;;;;;;;;;;17.80;61.00;;;;;;5032901;28;1963;-71
2023/02/01 13:28:03;;;;;;;;;;;17.80;60.90;;;;;;5020462;28;1248;-70
2023/02/01 13:30:52;;;;;;;;;;;17.80;60.90;;;;;;5033488;28;864;-70
2023/02/01 13:33:22;;;;;;;;;;;17.80;60.90;;;;;;5010203;28;1129;-71
2023/02/01 13:36:10;;;;;;;;;;;17.80;60.90;;;;;;5035028;28;1387;-70
2023/02/01 13:38:36;;;;;;;;;;;17.80;60.90;;;;;;5019799;28;1296;-70
2023/02/01 13:41:04;;;;;;;;;;;17.80;60.90;;;;;;5020277;28;892;-70
2023/02/01 13:43:29;;;;;;;;;;;17.80;60.90;;;;;;5021209;28;832;-70
2023/02/01 13:45:56;;;;;;;;;;;17.80;60.90;;;;;;5034652;28;1906;-70
2023/02/01 13:48:41;;;;;;;;;;;17.80;61.00;;;;;;5037167;28;1381;-69
2023/02/01 13:51:07;;;;;;;;;;;17.80;61.00;;;;;;5020050;28;1938;-69
2023/02/01 13:53:36;;;;;;;;;;;17.80;61.10;;;;;;5021338;28;1943;-69
2023/02/01 13:56:03;;;;;;;;;;;17.80;61.10;;;;;;5021941;28;1228;-69
2023/02/01 13:58:32;;;;;;;;;;;17.70;61.10;;;;;;5037225;28;1376;-70
2023/02/01 14:01:16;;;;;;;;;;;17.80;61.20;;;;;;5021065;28;1403;-69
2023/02/01 14:03:43;;;;;;;;;;;17.70;61.20;;;;;;5021810;28;1268;-69
2023/02/01 14:06:33;;;;;;;;;;;17.70;61.20;;;;;;5037956;28;1965;-69
2023/02/01 14:09:10;;;;;;;;;;;17.70;61.30;;;;;;5036426;28;1386;-69
2023/02/01 14:11:45;;;;;;;;;;;17.70;61.30;;;;;;5024301;28;916;-69
2023/02/01 14:14:13;;;;;;;;;;;17.70;61.30;;;;;;5022923;28;845;-69
2023/02/01 14:16:38;;;;;;;;;;;17.70;61.30;;;;;;5023376;28;979;-69
2023/02/01 14:19:06;;;;;;;;;;;17.70;61.30;;;;;;5021559;28;1319;-69
2023/02/01 14:21:33;;;;;;;;;;;17.70;61.30;;;;;;5033827;28;1368;-68
2023/02/01 14:24:02;;;;;;;;;;;17.70;61.30;;;;;;5029031;28;836;-71
2023/02/01 14:26:34;;;;;;;;;;;17.70;61.20;;;;;;5032427;28;1964;-70
2023/02/01 14:29:15;;;;;;;;;;;17.70;61.20;;;;;;5019917;28;1250;-69
2023/02/01 14:31:53;;;;;;;;;;;17.70;61.20;;;;;;5023181;28;2002;-70
2023/02/01 14:34:24;;;;;;;;;;;17.70;61.20;;;;;;5021675;28;1505;-70
2023/02/01 14:36:51;;;;;;;;;;;17.80;61.20;;;;;;5025412;28;961;-70
2023/02/01 14:39:21;;;;;;;;;;;17.80;61.20;;;;;;5037622;28;1338;-70
2023/02/01 14:41:46;;;;;;;;;;;17.80;61.20;;;;;;5037260;28;812;-70
2023/02/01 14:44:13;;;;;;;;;;;17.80;61.20;;;;;;5021036;28;1291;-70
2023/02/01 14:46:57;;;;;;;;;;;17.80;61.20;;;;;;5023020;28;1971;-71
2023/02/01 14:49:23;;;;;;;;;;;17.80;61.10;;;;;;5019285;28;1695;-71
2023/02/01 14:51:48;;;;;;;;;;;17.80;61.10;;;;;;5035730;28;769;-71
2023/02/01 14:54:14;;;;;;;;;;;17.80;61.10;;;;;;5037111;28;892;-71
2023/02/01 14:56:39;;;;;;;;;;;17.80;61.10;;;;;;5038428;28;902;-70
2023/02/01 14:59:09;;;;;;;;;;;17.80;61.10;;;;;;5023013;28;1334;-70
2023/02/01 15:01:37;;;;;;;;;;;17.80;61.00;;;;;;5022814;28;1550;-70
2023/02/01 15:04:18;;;;;;;;;;;17.80;61.00;;;;;;5036497;28;888;-71
2023/02/01 15:06:51;;;;;;;;;;;17.80;61.00;;;;;;5034877;28;1910;-71